Bearskin Lake, Canada
Current Conditions -  °F | °C
As of 2:07 AM on Friday 24 Oct 2014 (Local Time) from CYTL Reporting Station
Overcast Overcast  
Wind Chill:   Ceiling: 1900
Heat Index:   Visibility: 9mi
Dew Point:   Wind: 6mph
Humidity: 93%   Direction: 180°S
Pressure: 29.71"   Gusts: NA
Location:  53.93°N, 90.98°W
Report Text: CYTL 240707Z AUTO 18005KT 9SM BKN019 BKN029 OVC090 08/07 A2971 RMK SLP068
Loading
Personal Weather Stations






























Interactive Weather Map
Tropical Storm Tracking
New forecast layout! Learn more

10-Day Weather Forecast

Advertisements
Track Severe Weather on mobile